createdAt,value
2023-03-29T00:00:13.960Z,99253.56
2023-03-29T00:03:02.179Z,99245.75
2023-03-29T00:05:33.219Z,99256.19
2023-03-29T00:08:04.357Z,99258.78
2023-03-29T00:10:33.893Z,99244.00
2023-03-29T00:13:02.767Z,99250.97
2023-03-29T00:15:29.804Z,99251.81
2023-03-29T00:17:58.220Z,99257.00
2023-03-29T00:20:25.550Z,99252.59
2023-03-29T00:22:52.775Z,99244.81
2023-03-29T00:25:20.104Z,99243.94
2023-03-29T00:27:47.325Z,99239.59
2023-03-29T00:30:15.078Z,99251.81
2023-03-29T00:32:43.240Z,99240.56
2023-03-29T00:35:11.202Z,99243.25
2023-03-29T00:37:38.553Z,99245.78
2023-03-29T00:40:12.857Z,99244.00
2023-03-29T00:42:48.269Z,99245.75
2023-03-29T00:45:25.263Z,99238.78
2023-03-29T00:47:57.973Z,99230.13
2023-03-29T00:50:36.378Z,99241.47
2023-03-29T00:53:20.108Z,99233.63
2023-03-29T00:56:29.959Z,99228.41
2023-03-29T00:59:05.205Z,99221.44
2023-03-29T01:01:54.516Z,99217.13
2023-03-29T01:04:54.886Z,99220.63
2023-03-29T01:07:53.568Z,99213.66
2023-03-29T01:10:41.852Z,99218.97
2023-03-29T01:13:16.999Z,99216.47
2023-03-29T01:15:47.640Z,99212.22
2023-03-29T01:18:14.972Z,99224.53
2023-03-29T01:21:14.857Z,99216.75
2023-03-29T01:24:19.181Z,99215.13
2023-03-29T01:27:05.389Z,99215.16
2023-03-29T01:29:39.289Z,99213.44
2023-03-29T01:32:26.592Z,99205.66
2023-03-29T01:35:11.352Z,99212.63
2023-03-29T01:37:49.424Z,99213.50
2023-03-29T01:40:16.655Z,99217.00
2023-03-29T01:43:06.198Z,99203.97
2023-03-29T01:45:39.164Z,99209.22
2023-03-29T01:48:36.815Z,99210.09
2023-03-29T01:51:20.874Z,99202.31
2023-03-29T01:54:41.430Z,99198.84
2023-03-29T01:57:11.865Z,99194.47
2023-03-29T01:59:44.654Z,99196.19
2023-03-29T02:02:18.481Z,99202.25
2023-03-29T02:04:53.720Z,99194.47
2023-03-29T02:07:30.799Z,99191.88
2023-03-29T02:09:59.469Z,99188.41
2023-03-29T02:12:27.054Z,99188.38
2023-03-29T02:14:54.416Z,99181.44
2023-03-29T02:17:25.112Z,99165.81
2023-03-29T02:20:17.385Z,99166.75
2023-03-29T02:23:27.846Z,99159.00
2023-03-29T02:25:57.060Z,99149.41
2023-03-29T02:28:25.472Z,99143.38
2023-03-29T02:31:23.046Z,99140.75
2023-03-29T02:34:06.845Z,99148.44
2023-03-29T02:36:53.584Z,99159.69
2023-03-29T02:39:22.950Z,99152.69
2023-03-29T02:41:52.209Z,99137.88
2023-03-29T02:44:24.873Z,99135.28
2023-03-29T02:46:58.843Z,99143.13
2023-03-29T02:49:27.044Z,99137.00
2023-03-29T02:51:59.872Z,99130.91
2023-03-29T02:54:31.832Z,99130.91
2023-03-29T02:57:04.849Z,99130.00
2023-03-29T02:59:33.400Z,99122.16
2023-03-29T03:02:01.473Z,99116.94
2023-03-29T03:04:29.470Z,99124.78
2023-03-29T03:06:56.691Z,99123.91
2023-03-29T03:09:24.238Z,99131.63
2023-03-29T03:11:51.423Z,99120.28
2023-03-29T03:14:19.156Z,99120.28
2023-03-29T03:16:46.397Z,99113.38
2023-03-29T03:19:14.212Z,99109.03
2023-03-29T03:21:41.409Z,99103.81
2023-03-29T03:24:08.332Z,99115.06
2023-03-29T03:26:36.045Z,99104.63
2023-03-29T03:29:03.083Z,99108.88
2023-03-29T03:31:30.843Z,99105.41
2023-03-29T03:33:58.080Z,99099.34
2023-03-29T03:36:26.379Z,99095.00
2023-03-29T03:38:53.596Z,99095.94
2023-03-29T03:41:20.938Z,99091.59
2023-03-29T03:43:49.183Z,99092.53
2023-03-29T03:46:17.314Z,99093.38
2023-03-29T03:48:47.266Z,99095.09
2023-03-29T03:51:14.556Z,99107.22
2023-03-29T03:53:41.664Z,99113.22
2023-03-29T03:56:09.341Z,99113.22
2023-03-29T03:58:37.743Z,99113.19
2023-03-29T04:01:08.468Z,99100.16
2023-03-29T04:03:36.080Z,99101.00
2023-03-29T04:06:04.816Z,99102.78
2023-03-29T04:08:32.101Z,99108.94
2023-03-29T04:11:00.248Z,99100.25
2023-03-29T04:13:28.136Z,99100.31
2023-03-29T04:15:58.748Z,99102.03
2023-03-29T04:18:27.768Z,99105.50
2023-03-29T04:20:55.332Z,99108.13
2023-03-29T04:23:22.748Z,99109.91
2023-03-29T04:25:50.228Z,99112.53
2023-03-29T04:28:17.653Z,99116.94
2023-03-29T04:30:47.362Z,99103.06
2023-03-29T04:33:14.876Z,99101.28
2023-03-29T04:35:42.555Z,99096.91
2023-03-29T04:38:10.237Z,99096.91
2023-03-29T04:40:38.402Z,99103.81
2023-03-29T04:43:06.359Z,99091.66
2023-03-29T04:45:33.505Z,99093.34
2023-03-29T04:48:00.543Z,99089.91
2023-03-29T04:50:28.303Z,99095.13
2023-03-29T04:52:55.695Z,99097.63
2023-03-29T04:55:22.974Z,99094.97
2023-03-29T04:57:49.944Z,99098.41
2023-03-29T05:00:17.683Z,99097.50
2023-03-29T05:02:45.833Z,99095.69
2023-03-29T05:05:14.331Z,99087.81
2023-03-29T05:07:41.673Z,99093.06
2023-03-29T05:10:09.369Z,99091.38
2023-03-29T05:12:36.891Z,99094.88
2023-03-29T05:15:09.692Z,99094.84
2023-03-29T05:17:36.805Z,99093.09
2023-03-29T05:20:11.269Z,99091.34
2023-03-29T05:22:39.071Z,99088.69
2023-03-29T05:25:08.292Z,99093.84
2023-03-29T05:27:36.026Z,99088.59
2023-03-29T05:30:04.022Z,99102.53
2023-03-29T05:32:31.067Z,99092.13
2023-03-29T05:34:58.739Z,99086.91
2023-03-29T05:37:26.663Z,99088.59
2023-03-29T05:39:55.032Z,99079.84
2023-03-29T05:42:33.239Z,99079.78
2023-03-29T05:45:00.820Z,99076.25
2023-03-29T05:47:28.689Z,99077.16
2023-03-29T05:49:57.327Z,99079.69
2023-03-29T05:52:24.920Z,99077.97
2023-03-29T05:54:52.412Z,99077.00
2023-03-29T05:57:19.694Z,99069.13
2023-03-29T05:59:48.040Z,99065.56
2023-03-29T06:02:16.141Z,99053.41
2023-03-29T06:04:43.479Z,99048.25
2023-03-29T06:07:12.619Z,99052.50
2023-03-29T06:09:39.979Z,99048.97
2023-03-29T06:12:08.459Z,99059.31
2023-03-29T06:14:36.455Z,99060.09
2023-03-29T06:17:03.996Z,99061.78
2023-03-29T06:19:31.891Z,99056.66
2023-03-29T06:21:58.838Z,99057.50
2023-03-29T06:24:26.136Z,99053.88
2023-03-29T06:26:53.349Z,99056.41
2023-03-29T06:29:20.844Z,99057.13
2023-03-29T06:31:48.217Z,99051.03
2023-03-29T06:34:16.484Z,99051.78
2023-03-29T06:36:43.380Z,99057.75
2023-03-29T06:39:11.161Z,99059.41
2023-03-29T06:41:38.740Z,99053.34
2023-03-29T06:44:06.127Z,99056.72
2023-03-29T06:46:33.166Z,99058.38
2023-03-29T06:49:01.151Z,99059.13
2023-03-29T06:51:28.116Z,99050.44
2023-03-29T06:53:55.580Z,99054.75
2023-03-29T06:56:22.627Z,99050.47
2023-03-29T06:58:49.893Z,99047.88
2023-03-29T07:01:17.208Z,99046.91
2023-03-29T07:03:46.759Z,99047.72
2023-03-29T07:06:15.037Z,99048.50
2023-03-29T07:08:47.398Z,99048.38
2023-03-29T07:11:16.338Z,99046.63
2023-03-29T07:13:44.978Z,99041.19
2023-03-29T07:16:13.809Z,99055.03
2023-03-29T07:18:44.140Z,99047.44
2023-03-29T07:21:13.526Z,99049.41
2023-03-29T07:23:41.340Z,99046.88
2023-03-29T07:26:08.969Z,99054.97
2023-03-29T07:28:43.243Z,99056.63
2023-03-29T07:31:12.390Z,99046.03
2023-03-29T07:33:40.076Z,99050.38
2023-03-29T07:36:08.460Z,99060.94
2023-03-29T07:38:36.906Z,99059.47
2023-03-29T07:41:07.926Z,99056.59
2023-03-29T07:43:35.733Z,99061.69
2023-03-29T07:46:05.489Z,99059.09
2023-03-29T07:48:34.512Z,99052.66
2023-03-29T07:51:01.997Z,99057.59
2023-03-29T07:53:32.303Z,99060.09
2023-03-29T07:55:59.467Z,99053.00
2023-03-29T07:58:26.730Z,99051.97
2023-03-29T08:00:53.836Z,99054.47
2023-03-29T08:03:21.750Z,99051.72
2023-03-29T08:05:48.963Z,99057.88
2023-03-29T08:08:16.140Z,99050.91
2023-03-29T08:10:43.093Z,99045.75
2023-03-29T08:13:11.922Z,99044.94
2023-03-29T08:15:40.960Z,99044.13
2023-03-29T08:18:08.454Z,99039.69
2023-03-29T08:20:35.579Z,99043.94
2023-03-29T08:23:02.966Z,99052.50
2023-03-29T08:25:30.064Z,99048.03
2023-03-29T08:27:57.304Z,99056.69
2023-03-29T08:30:25.155Z,99058.44
2023-03-29T08:32:55.187Z,99054.13
2023-03-29T08:35:22.922Z,99055.91
2023-03-29T08:37:50.315Z,99043.78
2023-03-29T08:40:24.060Z,99043.88
2023-03-29T08:43:18.911Z,99041.19
2023-03-29T08:46:09.089Z,99042.03
2023-03-29T08:48:45.472Z,99051.72
2023-03-29T08:51:24.585Z,99046.31
2023-03-29T08:54:01.505Z,99049.63
2023-03-29T08:56:34.431Z,99047.91
2023-03-29T08:59:02.396Z,99053.13
2023-03-29T09:01:36.392Z,99055.81
2023-03-29T09:04:10.185Z,99054.88
2023-03-29T09:06:40.083Z,99058.44
2023-03-29T09:09:17.423Z,99064.53
2023-03-29T09:11:47.100Z,99053.53
2023-03-29T09:14:57.590Z,99046.78
2023-03-29T09:18:01.627Z,99048.09
2023-03-29T09:21:11.712Z,99042.31
2023-03-29T09:24:15.596Z,99035.47
2023-03-29T09:26:54.821Z,99029.44
2023-03-29T09:29:41.183Z,99022.41
2023-03-29T09:32:22.378Z,99023.00
2023-03-29T09:35:18.186Z,99019.38
2023-03-29T09:37:49.184Z,99022.69
2023-03-29T09:40:41.891Z,99013.63
2023-03-29T09:43:15.116Z,99012.47
2023-03-29T09:45:44.033Z,99010.38
2023-03-29T09:48:19.336Z,99009.19
2023-03-29T09:50:48.591Z,99002.06
2023-03-29T09:53:16.403Z,98998.94
2023-03-29T09:55:49.727Z,99008.28
2023-03-29T09:58:23.339Z,98997.09
2023-03-29T10:00:51.059Z,99002.94
2023-03-29T10:03:25.554Z,99009.69
2023-03-29T10:05:56.951Z,99007.03
2023-03-29T10:08:44.182Z,99008.63
2023-03-29T10:11:28.974Z,98993.66
2023-03-29T10:14:04.743Z,98996.06
2023-03-29T10:16:41.227Z,98994.16
2023-03-29T10:19:28.320Z,98988.81
2023-03-29T10:21:59.873Z,98984.31
2023-03-29T10:24:28.260Z,98981.75
2023-03-29T10:27:02.649Z,98982.34
2023-03-29T10:29:41.119Z,98985.44
2023-03-29T10:32:38.801Z,98980.13
2023-03-29T10:35:26.166Z,98973.25
2023-03-29T10:37:58.346Z,98980.91
2023-03-29T10:40:25.503Z,98966.94
2023-03-29T10:42:57.641Z,98973.50
2023-03-29T10:45:31.887Z,98972.41
2023-03-29T10:47:59.218Z,98963.44
2023-03-29T10:50:34.594Z,98955.66
2023-03-29T10:53:03.208Z,98953.81
2023-03-29T10:56:13.831Z,98948.59
2023-03-29T10:58:52.725Z,98956.19
2023-03-29T11:01:57.974Z,98956.56
2023-03-29T11:04:38.193Z,98949.41
2023-03-29T11:07:34.650Z,98946.31
2023-03-29T11:10:16.874Z,98940.81
2023-03-29T11:13:34.572Z,98937.19
2023-03-29T11:16:42.101Z,98948.09
2023-03-29T11:19:34.215Z,98938.75
2023-03-29T11:22:57.310Z,98932.19
2023-03-29T11:26:01.567Z,98928.28
2023-03-29T11:28:55.343Z,98930.53
2023-03-29T11:31:40.838Z,98924.00
2023-03-29T11:34:39.650Z,98927.16
2023-03-29T11:37:44.060Z,98927.88
2023-03-29T11:40:42.802Z,98921.56
2023-03-29T11:43:19.183Z,98921.56
2023-03-29T11:46:00.985Z,98915.03
2023-03-29T11:49:15.295Z,98912.25
2023-03-29T11:51:59.531Z,98910.25
2023-03-29T11:54:57.391Z,98905.84
2023-03-29T11:58:06.569Z,98899.88
2023-03-29T12:00:44.941Z,98892.44
2023-03-29T12:03:35.339Z,98887.78
2023-03-29T12:06:27.972Z,98877.31
2023-03-29T12:09:10.982Z,98873.03
2023-03-29T12:11:57.745Z,98865.84
2023-03-29T12:14:42.554Z,98867.47
2023-03-29T12:17:18.646Z,98864.34
2023-03-29T12:20:02.680Z,98857.06
2023-03-29T12:22:31.320Z,98863.22
2023-03-29T12:25:00.650Z,98866.53
2023-03-29T12:27:37.552Z,98857.25
2023-03-29T12:30:34.219Z,98851.44
2023-03-29T12:33:32.939Z,98860.44
2023-03-29T12:36:41.578Z,98858.50
2023-03-29T12:39:17.833Z,98856.50
2023-03-29T12:41:49.026Z,98842.88
2023-03-29T12:44:22.778Z,98848.66
2023-03-29T12:47:00.502Z,98850.41
2023-03-29T12:49:39.058Z,98841.41
2023-03-29T12:52:27.139Z,98845.56
2023-03-29T12:54:59.403Z,98835.31
2023-03-29T12:57:43.106Z,98837.63
2023-03-29T13:00:39.715Z,98832.00
2023-03-29T13:03:46.565Z,98820.09
2023-03-29T13:06:28.964Z,98826.94
2023-03-29T13:09:22.639Z,98818.47
2023-03-29T13:12:13.464Z,98821.97
2023-03-29T13:14:46.488Z,98818.91
2023-03-29T13:17:49.000Z,98806.69
2023-03-29T13:20:41.052Z,98809.56
2023-03-29T13:23:29.468Z,98803.38
2023-03-29T13:26:40.927Z,98796.09
2023-03-29T13:29:47.970Z,98794.84
2023-03-29T13:32:38.919Z,98793.09
2023-03-29T13:35:35.796Z,98791.25
2023-03-29T13:38:08.108Z,98794.97
2023-03-29T13:40:44.352Z,98790.41
2023-03-29T13:43:20.227Z,98793.50
2023-03-29T13:45:59.394Z,98791.69
2023-03-29T13:48:48.999Z,98781.00
2023-03-29T13:51:19.308Z,98778.78
2023-03-29T13:54:03.397Z,98774.81
2023-03-29T13:56:58.088Z,98768.44
2023-03-29T14:00:02.601Z,98762.94
2023-03-29T14:02:41.922Z,98772.66
2023-03-29T14:05:14.915Z,98763.44
2023-03-29T14:07:53.455Z,98765.97
2023-03-29T14:10:39.834Z,98764.81
2023-03-29T14:13:13.760Z,98771.66
2023-03-29T14:15:53.536Z,98769.16
2023-03-29T14:18:27.698Z,98763.59
2023-03-29T14:20:56.229Z,98754.06
2023-03-29T14:23:27.451Z,98747.44
2023-03-29T14:25:54.334Z,98747.03
2023-03-29T14:28:28.534Z,98740.88
2023-03-29T14:30:56.746Z,98726.16
2023-03-29T14:33:34.949Z,98726.88
2023-03-29T14:36:05.117Z,98731.03
2023-03-29T14:38:35.613Z,98733.59
2023-03-29T14:41:03.847Z,98724.75
2023-03-29T14:43:32.194Z,98729.31
2023-03-29T14:46:06.318Z,98728.69
2023-03-29T14:48:35.691Z,98730.94
2023-03-29T14:51:04.141Z,98725.44
2023-03-29T14:53:34.464Z,98730.16
2023-03-29T14:56:02.504Z,98730.16
2023-03-29T14:58:35.394Z,98728.03
2023-03-29T15:01:19.142Z,98724.75
2023-03-29T15:04:09.120Z,98734.31
2023-03-29T15:06:43.661Z,98733.16
2023-03-29T15:09:34.172Z,98730.53
2023-03-29T15:12:03.565Z,98728.59
2023-03-29T15:14:37.071Z,98727.25
2023-03-29T15:17:50.216Z,98721.69
2023-03-29T15:20:25.775Z,98717.88
2023-03-29T15:23:02.196Z,98710.88
2023-03-29T15:25:38.388Z,98712.50
2023-03-29T15:28:06.238Z,98715.00
2023-03-29T15:30:38.696Z,98710.47
2023-03-29T15:33:24.831Z,98710.34
2023-03-29T15:35:54.033Z,98711.25
2023-03-29T15:38:27.511Z,98716.69
2023-03-29T15:41:01.739Z,98715.13
2023-03-29T15:43:28.985Z,98718.63
2023-03-29T15:45:56.561Z,98719.75
2023-03-29T15:48:27.306Z,98706.47
2023-03-29T15:50:55.309Z,98701.91
2023-03-29T15:53:23.722Z,98693.84
2023-03-29T15:55:54.949Z,98695.53
2023-03-29T15:58:30.165Z,98690.25
2023-03-29T16:01:37.646Z,98688.38
2023-03-29T16:04:14.173Z,98671.69
2023-03-29T16:06:42.607Z,98670.75
2023-03-29T16:09:11.901Z,98663.69
2023-03-29T16:11:41.560Z,98662.91
2023-03-29T16:14:31.517Z,98665.63
2023-03-29T16:17:01.391Z,98663.81
2023-03-29T16:19:31.611Z,98660.34
2023-03-29T16:22:02.331Z,98664.78
2023-03-29T16:24:32.152Z,98669.97
2023-03-29T16:27:01.402Z,98666.47
2023-03-29T16:29:29.605Z,98668.19
2023-03-29T16:31:57.270Z,98669.19
2023-03-29T16:34:24.440Z,98665.47
2023-03-29T16:36:53.093Z,98660.34
2023-03-29T16:39:20.082Z,98662.13
2023-03-29T16:41:49.082Z,98662.22
2023-03-29T16:44:21.672Z,98663.06
2023-03-29T16:46:50.464Z,98663.81
2023-03-29T16:49:18.736Z,98660.41
2023-03-29T16:51:47.437Z,98659.56
2023-03-29T16:54:17.254Z,98664.78
2023-03-29T16:56:44.995Z,98656.94
2023-03-29T16:59:12.276Z,98655.13
2023-03-29T17:01:40.596Z,98652.56
2023-03-29T17:04:09.020Z,98649.06
2023-03-29T17:06:36.438Z,98658.75
2023-03-29T17:09:05.232Z,98642.09
2023-03-29T17:11:32.903Z,98648.28
2023-03-29T17:14:00.221Z,98648.34
2023-03-29T17:16:29.118Z,98646.69
2023-03-29T17:19:00.609Z,98642.31
2023-03-29T17:21:29.318Z,98647.59
2023-03-29T17:23:56.418Z,98649.47
2023-03-29T17:26:23.924Z,98639.84
2023-03-29T17:28:51.010Z,98639.03
2023-03-29T17:31:19.576Z,98653.13
2023-03-29T17:33:47.578Z,98647.06
2023-03-29T17:36:15.057Z,98647.16
2023-03-29T17:38:42.831Z,98648.97
2023-03-29T17:41:10.226Z,98654.25
2023-03-29T17:43:37.166Z,98648.13
2023-03-29T17:46:04.963Z,98653.47
2023-03-29T17:48:32.948Z,98652.56
2023-03-29T17:51:00.325Z,98661.41
2023-03-29T17:53:27.464Z,98658.84
2023-03-29T17:55:55.016Z,98653.56
2023-03-29T17:58:22.039Z,98651.94
2023-03-29T18:00:49.854Z,98652.84
2023-03-29T18:03:19.641Z,98659.94
2023-03-29T18:05:51.614Z,98660.00
2023-03-29T18:08:20.382Z,98650.34
2023-03-29T18:10:48.320Z,98655.78
2023-03-29T18:13:16.048Z,98654.94
2023-03-29T18:15:45.237Z,98656.78
2023-03-29T18:18:12.121Z,98663.06
2023-03-29T18:20:39.378Z,98657.94
2023-03-29T18:23:06.580Z,98660.66
2023-03-29T18:25:34.264Z,98656.38
2023-03-29T18:28:01.167Z,98661.78
2023-03-29T18:30:28.509Z,98661.00
2023-03-29T18:32:55.686Z,98661.06
2023-03-29T18:35:23.705Z,98667.44
2023-03-29T18:37:51.578Z,98666.66
2023-03-29T18:40:24.708Z,98672.78
2023-03-29T18:42:52.372Z,98676.34
2023-03-29T18:45:19.992Z,98677.28
2023-03-29T18:47:47.044Z,98672.16
2023-03-29T18:50:14.413Z,98672.94
2023-03-29T18:52:42.119Z,98681.75
2023-03-29T18:55:10.309Z,98683.63
2023-03-29T18:57:37.387Z,98678.47
2023-03-29T19:00:10.641Z,98684.63
2023-03-29T19:02:39.812Z,98681.94
2023-03-29T19:05:08.698Z,98688.06
2023-03-29T19:07:36.803Z,98683.69
2023-03-29T19:10:06.783Z,98689.97
2023-03-29T19:12:34.064Z,98683.91
2023-03-29T19:15:01.950Z,98696.16
2023-03-29T19:17:28.893Z,98690.75
2023-03-29T19:19:56.819Z,98691.53
2023-03-29T19:22:23.806Z,98695.84
2023-03-29T19:24:51.511Z,98689.53
2023-03-29T19:27:18.662Z,98684.34
2023-03-29T19:29:46.231Z,98691.41
2023-03-29T19:32:13.739Z,98696.69
2023-03-29T19:34:41.006Z,98695.84
2023-03-29T19:37:07.980Z,98687.22
2023-03-29T19:39:35.346Z,98691.41
2023-03-29T19:42:02.318Z,98696.56
2023-03-29T19:44:30.302Z,98687.84
2023-03-29T19:46:57.294Z,98686.19
2023-03-29T19:49:24.532Z,98683.63
2023-03-29T19:51:55.596Z,98683.75
2023-03-29T19:54:24.149Z,98683.84
2023-03-29T19:56:52.825Z,98680.47
2023-03-29T19:59:20.326Z,98677.06
2023-03-29T20:01:51.181Z,98680.56
2023-03-29T20:04:22.740Z,98671.84
2023-03-29T20:06:50.048Z,98669.34
2023-03-29T20:09:17.370Z,98670.34
2023-03-29T20:11:45.012Z,98666.94
2023-03-29T20:14:12.636Z,98657.41
2023-03-29T20:16:40.509Z,98651.44
2023-03-29T20:19:08.115Z,98649.81
2023-03-29T20:21:37.348Z,98647.22
2023-03-29T20:24:05.951Z,98638.59
2023-03-29T20:26:33.059Z,98634.22
2023-03-29T20:29:00.700Z,98637.94
2023-03-29T20:31:29.556Z,98632.81
2023-03-29T20:33:57.658Z,98629.38
2023-03-29T20:36:26.703Z,98626.88
2023-03-29T20:38:56.307Z,98629.66
2023-03-29T20:41:23.604Z,98620.06
2023-03-29T20:43:58.437Z,98619.22
2023-03-29T20:46:34.879Z,98614.03
2023-03-29T20:49:11.207Z,98611.59
2023-03-29T20:51:39.738Z,98614.31
2023-03-29T20:54:07.589Z,98608.28
2023-03-29T20:56:39.130Z,98611.22
2023-03-29T20:59:10.728Z,98606.16
2023-03-29T21:01:41.057Z,98608.31
2023-03-29T21:04:10.888Z,98610.09
2023-03-29T21:06:39.659Z,98602.97
2023-03-29T21:09:07.480Z,98606.63
2023-03-29T21:11:34.501Z,98603.06
2023-03-29T21:14:02.685Z,98597.91
2023-03-29T21:16:29.929Z,98590.00
2023-03-29T21:18:57.258Z,98598.91
2023-03-29T21:21:24.308Z,98592.72
2023-03-29T21:23:51.524Z,98586.50
2023-03-29T21:26:18.439Z,98583.94
2023-03-29T21:28:45.930Z,98584.72
2023-03-29T21:31:12.887Z,98574.28
2023-03-29T21:33:40.109Z,98582.97
2023-03-29T21:36:08.284Z,98586.44
2023-03-29T21:38:35.793Z,98574.28
2023-03-29T21:41:03.277Z,98574.28
2023-03-29T21:43:30.824Z,98572.50
2023-03-29T21:45:57.867Z,98572.56
2023-03-29T21:48:25.153Z,98568.31
2023-03-29T21:50:52.097Z,98567.59
2023-03-29T21:53:19.321Z,98558.88
2023-03-29T21:55:49.617Z,98562.47
2023-03-29T21:58:19.557Z,98562.53
2023-03-29T22:00:47.937Z,98558.03
2023-03-29T22:03:16.666Z,98555.53
2023-03-29T22:05:44.449Z,98553.97
2023-03-29T22:08:11.800Z,98551.44
2023-03-29T22:10:41.478Z,98553.22
2023-03-29T22:13:09.432Z,98550.88
2023-03-29T22:15:36.429Z,98547.28
2023-03-29T22:18:05.195Z,98544.66
2023-03-29T22:20:35.704Z,98541.16
2023-03-29T22:23:03.434Z,98535.31
2023-03-29T22:25:30.565Z,98534.41
2023-03-29T22:27:58.077Z,98527.28
2023-03-29T22:30:25.122Z,98532.47
2023-03-29T22:32:52.662Z,98532.34
2023-03-29T22:35:19.729Z,98529.72
2023-03-29T22:37:47.140Z,98530.56
2023-03-29T22:40:14.406Z,98528.78
2023-03-29T22:42:41.746Z,98527.88
2023-03-29T22:45:09.831Z,98528.84
2023-03-29T22:47:37.251Z,98525.22
2023-03-29T22:50:04.840Z,98528.72
2023-03-29T22:52:32.201Z,98526.97
2023-03-29T22:54:59.263Z,98519.91
2023-03-29T22:57:26.641Z,98519.13
2023-03-29T22:59:53.881Z,98520.94
2023-03-29T23:02:21.780Z,98515.81
2023-03-29T23:04:49.102Z,98520.50
2023-03-29T23:07:16.762Z,98518.84
2023-03-29T23:09:43.819Z,98526.81
2023-03-29T23:12:11.127Z,98517.16
2023-03-29T23:14:42.610Z,98520.69
2023-03-29T23:17:10.407Z,98522.41
2023-03-29T23:19:38.147Z,98512.78
2023-03-29T23:22:05.652Z,98511.00
2023-03-29T23:24:32.819Z,98508.31
2023-03-29T23:27:01.189Z,98514.28
2023-03-29T23:29:28.402Z,98506.19
2023-03-29T23:31:56.928Z,98505.28
2023-03-29T23:34:24.138Z,98501.72
2023-03-29T23:36:51.629Z,98510.50
2023-03-29T23:39:18.733Z,98517.53
2023-03-29T23:41:46.198Z,98508.66
2023-03-29T23:44:13.336Z,98505.06
2023-03-29T23:46:42.038Z,98517.25
2023-03-29T23:49:10.018Z,98511.06
2023-03-29T23:51:39.251Z,98514.69
2023-03-29T23:54:06.736Z,98512.13
2023-03-29T23:56:34.707Z,98502.50
2023-03-29T23:59:03.356Z,98503.50
